createdAt,value
2023-03-11T00:00:25.189Z,3.45
2023-03-11T00:01:25.196Z,3.32
2023-03-11T00:02:25.274Z,3.32
2023-03-11T00:03:25.163Z,3.44
2023-03-11T00:04:25.215Z,3.55
2023-03-11T00:05:25.215Z,3.59
2023-03-11T00:06:25.163Z,3.51
2023-03-11T00:07:25.123Z,3.60
2023-03-11T00:08:25.131Z,3.64
2023-03-11T00:09:25.090Z,3.56
2023-03-11T00:10:25.080Z,3.54
2023-03-11T00:11:25.093Z,3.55
2023-03-11T00:12:25.761Z,3.59
2023-03-11T00:13:25.131Z,3.54
2023-03-11T00:14:25.065Z,3.51
2023-03-11T00:15:25.039Z,3.52
2023-03-11T00:16:25.064Z,3.55
2023-03-11T00:17:25.045Z,3.59
2023-03-11T00:18:25.085Z,3.56
2023-03-11T00:19:25.019Z,3.66
2023-03-11T00:20:25.038Z,3.70
2023-03-11T00:21:25.010Z,3.69
2023-03-11T00:22:24.969Z,3.64
2023-03-11T00:23:24.960Z,3.73
2023-03-11T00:24:24.968Z,3.78
2023-03-11T00:25:24.941Z,3.63
2023-03-11T00:26:24.982Z,3.56
2023-03-11T00:27:24.957Z,3.46
2023-03-11T00:28:24.908Z,3.36
2023-03-11T00:29:24.935Z,3.48
2023-03-11T00:30:24.932Z,3.63
2023-03-11T00:31:24.905Z,3.78
2023-03-11T00:32:24.933Z,3.92
2023-03-11T00:33:24.823Z,3.88
2023-03-11T00:34:24.889Z,3.94
2023-03-11T00:35:24.862Z,3.98
2023-03-11T00:36:24.838Z,3.81
2023-03-11T00:37:24.822Z,3.60
2023-03-11T00:38:24.885Z,3.52
2023-03-11T00:39:24.820Z,3.49
2023-03-11T00:40:24.910Z,3.60
2023-03-11T00:41:24.811Z,3.67
2023-03-11T00:42:24.777Z,3.63
2023-03-11T00:43:24.758Z,3.67
2023-03-11T00:44:24.796Z,3.67
2023-03-11T00:45:24.744Z,3.60
2023-03-11T00:46:24.792Z,3.52
2023-03-11T00:47:24.735Z,3.52
2023-03-11T00:48:24.745Z,3.55
2023-03-11T00:49:24.746Z,3.62
2023-03-11T00:50:24.705Z,3.56
2023-03-11T00:51:24.689Z,3.55
2023-03-11T00:52:24.692Z,3.59
2023-03-11T00:53:24.673Z,3.59
2023-03-11T00:54:24.681Z,3.52
2023-03-11T00:55:24.684Z,3.46
2023-03-11T00:56:24.669Z,3.44
2023-03-11T00:57:24.625Z,3.55
2023-03-11T00:58:24.632Z,3.74
2023-03-11T00:59:24.609Z,3.74
2023-03-11T01:00:24.632Z,3.82
2023-03-11T01:01:24.618Z,3.82
2023-03-11T01:02:24.594Z,3.76
2023-03-11T01:03:24.570Z,3.74
2023-03-11T01:04:24.583Z,3.73
2023-03-11T01:05:24.564Z,3.74
2023-03-11T01:06:27.859Z,3.69
2023-03-11T01:07:24.578Z,3.56
2023-03-11T01:08:24.523Z,3.56
2023-03-11T01:09:24.508Z,3.62
2023-03-11T01:10:24.498Z,3.56
2023-03-11T01:11:24.512Z,3.66
2023-03-11T01:12:24.475Z,3.82
2023-03-11T01:13:24.483Z,3.98
2023-03-11T01:14:24.490Z,4.02
2023-03-11T01:15:24.501Z,3.90
2023-03-11T01:16:24.509Z,3.78
2023-03-11T01:17:24.468Z,3.67
2023-03-11T01:18:24.417Z,3.54
2023-03-11T01:19:24.453Z,3.49
2023-03-11T01:20:24.418Z,3.33
2023-03-11T01:21:24.426Z,3.36
2023-03-11T01:22:24.380Z,3.44
2023-03-11T01:23:24.428Z,3.45
2023-03-11T01:24:24.393Z,3.52
2023-03-11T01:25:24.344Z,3.55
2023-03-11T01:26:24.372Z,3.62
2023-03-11T01:27:24.338Z,3.64
2023-03-11T01:28:24.362Z,3.62
2023-03-11T01:29:24.326Z,3.67
2023-03-11T01:30:24.313Z,3.70
2023-03-11T01:31:24.416Z,3.80
2023-03-11T01:32:24.368Z,3.87
2023-03-11T01:33:24.263Z,3.92
2023-03-11T01:34:24.322Z,3.80
2023-03-11T01:35:24.284Z,3.78
2023-03-11T01:36:24.320Z,3.76
2023-03-11T01:37:24.256Z,3.81
2023-03-11T01:38:24.238Z,3.84
2023-03-11T01:39:24.225Z,3.91
2023-03-11T01:40:24.242Z,3.76
2023-03-11T01:41:24.192Z,3.64
2023-03-11T01:42:24.177Z,3.60
2023-03-11T01:43:24.184Z,3.52
2023-03-11T01:44:24.209Z,3.51
2023-03-11T01:45:24.183Z,3.44
2023-03-11T01:46:24.244Z,3.41
2023-03-11T01:47:24.146Z,3.44
2023-03-11T01:48:24.157Z,3.51
2023-03-11T01:49:25.136Z,3.64
2023-03-11T01:50:24.110Z,3.91
2023-03-11T01:51:24.106Z,3.99
2023-03-11T01:52:24.113Z,4.05
2023-03-11T01:53:24.149Z,4.03
2023-03-11T01:54:24.087Z,3.96
2023-03-11T01:55:24.065Z,3.96
2023-03-11T01:56:24.059Z,3.82
2023-03-11T01:57:24.099Z,3.69
2023-03-11T01:58:24.044Z,3.64
2023-03-11T01:59:24.081Z,3.60
2023-03-11T02:00:24.015Z,3.54
2023-03-11T02:01:24.015Z,3.56
2023-03-11T02:02:23.994Z,3.60
2023-03-11T02:03:23.998Z,3.72
2023-03-11T02:04:23.949Z,3.85
2023-03-11T02:05:23.952Z,3.82
2023-03-11T02:06:23.954Z,3.78
2023-03-11T02:07:23.974Z,3.84
2023-03-11T02:08:23.912Z,3.92
2023-03-11T02:09:23.942Z,3.94
2023-03-11T02:10:23.912Z,3.92
2023-03-11T02:11:23.901Z,3.98
2023-03-11T02:12:23.910Z,3.96
2023-03-11T02:13:23.896Z,3.81
2023-03-11T02:14:23.864Z,3.73
2023-03-11T02:15:23.879Z,3.70
2023-03-11T02:16:23.909Z,3.66
2023-03-11T02:17:23.847Z,3.63
2023-03-11T02:18:23.827Z,3.67
2023-03-11T02:19:23.826Z,3.85
2023-03-11T02:20:23.825Z,3.84
2023-03-11T02:21:23.804Z,3.76
2023-03-11T02:22:23.797Z,3.70
2023-03-11T02:23:23.813Z,3.60
2023-03-11T02:24:23.772Z,3.60
2023-03-11T02:25:23.796Z,3.64
2023-03-11T02:26:23.793Z,3.64
2023-03-11T02:27:23.745Z,3.51
2023-03-11T02:28:23.739Z,3.44
2023-03-11T02:29:23.713Z,3.33
2023-03-11T02:30:23.742Z,3.41
2023-03-11T02:31:23.739Z,3.44
2023-03-11T02:32:23.755Z,3.36
2023-03-11T02:33:23.677Z,3.37
2023-03-11T02:34:23.671Z,3.46
2023-03-11T02:35:23.703Z,3.44
2023-03-11T02:36:23.687Z,3.49
2023-03-11T02:37:23.722Z,3.55
2023-03-11T02:38:23.638Z,3.66
2023-03-11T02:39:23.619Z,3.67
2023-03-11T02:40:23.664Z,3.64
2023-03-11T02:41:23.608Z,3.63
2023-03-11T02:42:23.625Z,3.52
2023-03-11T02:43:23.584Z,3.46
2023-03-11T02:44:23.594Z,3.59
2023-03-11T02:45:23.574Z,3.59
2023-03-11T02:46:23.595Z,3.59
2023-03-11T02:47:23.560Z,3.60
2023-03-11T02:48:23.532Z,3.62
2023-03-11T02:49:23.570Z,3.52
2023-03-11T02:50:23.514Z,3.52
2023-03-11T02:51:23.537Z,3.52
2023-03-11T02:52:23.529Z,3.51
2023-03-11T02:53:23.546Z,3.62
2023-03-11T02:54:23.472Z,3.67
2023-03-11T02:55:23.521Z,3.76
2023-03-11T02:56:23.464Z,3.91
2023-03-11T02:57:23.460Z,4.05
2023-03-11T02:58:23.442Z,3.94
2023-03-11T02:59:23.425Z,3.82
2023-03-11T03:00:23.424Z,3.81
2023-03-11T03:01:23.425Z,3.88
2023-03-11T03:02:23.401Z,3.94
2023-03-11T03:03:23.403Z,3.91
2023-03-11T03:04:23.415Z,3.81
2023-03-11T03:05:23.367Z,3.69
2023-03-11T03:06:23.372Z,3.63
2023-03-11T03:07:24.257Z,3.56
2023-03-11T03:08:23.402Z,3.51
2023-03-11T03:09:23.351Z,3.52
2023-03-11T03:10:23.322Z,3.51
2023-03-11T03:11:23.352Z,3.41
2023-03-11T03:12:23.287Z,3.23
2023-03-11T03:13:23.295Z,3.22
2023-03-11T03:14:23.275Z,3.35
2023-03-11T03:15:23.280Z,3.55
2023-03-11T03:16:23.289Z,3.70
2023-03-11T03:17:23.277Z,3.85
2023-03-11T03:18:23.368Z,3.84
2023-03-11T03:19:23.254Z,3.90
2023-03-11T03:20:23.217Z,3.90
2023-03-11T03:21:23.215Z,3.92
2023-03-11T03:22:23.232Z,4.02
2023-03-11T03:23:23.229Z,4.05
2023-03-11T03:24:23.188Z,4.03
2023-03-11T03:25:24.120Z,4.06
2023-03-11T03:26:23.201Z,4.12
2023-03-11T03:27:23.163Z,4.03
2023-03-11T03:28:23.174Z,4.03
2023-03-11T03:29:23.143Z,4.13
2023-03-11T03:30:23.166Z,4.12
2023-03-11T03:31:23.210Z,4.21
2023-03-11T03:32:23.145Z,4.26
2023-03-11T03:33:23.088Z,4.17
2023-03-11T03:34:23.076Z,4.10
2023-03-11T03:35:23.221Z,4.16
2023-03-11T03:36:23.833Z,4.17
2023-03-11T03:37:23.043Z,4.17
2023-03-11T03:38:23.066Z,4.23
2023-03-11T03:39:23.041Z,4.08
2023-03-11T03:40:23.024Z,4.00
2023-03-11T03:41:23.029Z,3.85
2023-03-11T03:42:23.777Z,3.85
2023-03-11T03:43:23.028Z,3.92
2023-03-11T03:44:22.980Z,3.99
2023-03-11T03:45:22.978Z,4.06
2023-03-11T03:46:23.070Z,4.09
2023-03-11T03:47:22.975Z,4.00
2023-03-11T03:48:22.964Z,4.00
2023-03-11T03:49:22.960Z,4.03
2023-03-11T03:50:22.925Z,4.06
2023-03-11T03:51:22.952Z,4.06
2023-03-11T03:52:22.906Z,4.08
2023-03-11T03:53:22.942Z,4.17
2023-03-11T03:54:22.890Z,4.00
2023-03-11T03:55:22.869Z,3.98
2023-03-11T03:56:22.885Z,3.92
2023-03-11T03:57:22.867Z,3.94
2023-03-11T03:58:22.853Z,3.91
2023-03-11T03:59:22.889Z,3.87
2023-03-11T04:00:22.843Z,3.78
2023-03-11T04:01:22.828Z,3.70
2023-03-11T04:02:22.876Z,3.70
2023-03-11T04:03:22.864Z,3.81
2023-03-11T04:04:22.784Z,3.88
2023-03-11T04:05:22.824Z,4.08
2023-03-11T04:06:22.816Z,4.24
2023-03-11T04:07:22.763Z,4.28
2023-03-11T04:08:22.759Z,4.24
2023-03-11T04:09:22.773Z,4.30
2023-03-11T04:10:22.732Z,4.41
2023-03-11T04:11:22.820Z,4.38
2023-03-11T04:12:22.715Z,4.13
2023-03-11T04:13:22.731Z,4.05
2023-03-11T04:14:22.703Z,4.08
2023-03-11T04:15:22.710Z,4.03
2023-03-11T04:16:22.812Z,3.92
2023-03-11T04:17:22.675Z,3.80
2023-03-11T04:18:22.661Z,3.74
2023-03-11T04:19:22.713Z,3.81
2023-03-11T04:20:22.689Z,3.81
2023-03-11T04:21:22.676Z,3.73
2023-03-11T04:22:22.616Z,3.73
2023-03-11T04:23:22.611Z,3.88
2023-03-11T04:24:22.627Z,3.85
2023-03-11T04:25:22.602Z,3.85
2023-03-11T04:26:22.596Z,3.94
2023-03-11T04:27:22.750Z,4.09
2023-03-11T04:28:22.552Z,4.16
2023-03-11T04:29:22.542Z,4.12
2023-03-11T04:30:22.568Z,4.08
2023-03-11T04:31:22.626Z,4.05
2023-03-11T04:32:22.589Z,4.00
2023-03-11T04:33:22.514Z,4.02
2023-03-11T04:34:22.518Z,4.08
2023-03-11T04:35:22.542Z,4.23
2023-03-11T04:36:22.568Z,4.27
2023-03-11T04:37:22.484Z,4.26
2023-03-11T04:38:22.471Z,4.31
2023-03-11T04:39:22.508Z,4.34
2023-03-11T04:40:22.415Z,4.28
2023-03-11T04:41:22.422Z,4.31
2023-03-11T04:42:22.411Z,4.34
2023-03-11T04:43:22.418Z,4.31
2023-03-11T04:44:22.393Z,4.30
2023-03-11T04:45:22.801Z,4.18
2023-03-11T04:46:22.554Z,3.99
2023-03-11T04:47:22.386Z,4.03
2023-03-11T04:48:22.356Z,4.09
2023-03-11T04:49:22.371Z,4.06
2023-03-11T04:50:22.344Z,4.00
2023-03-11T04:51:22.407Z,3.96
2023-03-11T04:52:22.344Z,3.99
2023-03-11T04:53:22.353Z,4.05
2023-03-11T04:54:22.294Z,3.91
2023-03-11T04:55:22.362Z,3.62
2023-03-11T04:56:22.276Z,3.48
2023-03-11T04:57:22.276Z,3.46
2023-03-11T04:58:22.281Z,3.46
2023-03-11T04:59:22.249Z,3.44
2023-03-11T05:00:22.250Z,3.33
2023-03-11T05:01:22.282Z,3.36
2023-03-11T05:02:22.223Z,3.56
2023-03-11T05:03:22.260Z,3.66
2023-03-11T05:04:22.263Z,3.70
2023-03-11T05:05:22.191Z,3.72
2023-03-11T05:06:22.250Z,3.76
2023-03-11T05:07:22.196Z,3.76
2023-03-11T05:08:22.274Z,3.81
2023-03-11T05:09:22.254Z,3.92
2023-03-11T05:10:22.282Z,4.03
2023-03-11T05:11:22.143Z,4.10
2023-03-11T05:12:22.129Z,4.13
2023-03-11T05:13:22.104Z,4.05
2023-03-11T05:14:22.084Z,3.98
2023-03-11T05:15:22.090Z,3.96
2023-03-11T05:16:22.109Z,4.03
2023-03-11T05:17:22.063Z,4.16
2023-03-11T05:18:22.086Z,4.18
2023-03-11T05:19:22.022Z,4.24
2023-03-11T05:20:21.980Z,4.34
2023-03-11T05:21:22.011Z,4.28
2023-03-11T05:22:21.965Z,4.21
2023-03-11T05:23:22.045Z,4.13
2023-03-11T05:24:21.984Z,4.10
2023-03-11T05:25:21.958Z,4.05
2023-03-11T05:26:21.938Z,4.09
2023-03-11T05:27:22.242Z,4.23
2023-03-11T05:28:21.900Z,4.30
2023-03-11T05:29:21.908Z,4.34
2023-03-11T05:30:21.915Z,4.36
2023-03-11T05:31:21.992Z,4.31
2023-03-11T05:32:21.899Z,4.20
2023-03-11T05:33:21.858Z,4.02
2023-03-11T05:34:21.863Z,3.96
2023-03-11T05:35:21.955Z,3.91
2023-03-11T05:36:21.835Z,3.92
2023-03-11T05:37:21.858Z,3.98
2023-03-11T05:38:21.870Z,4.00
2023-03-11T05:39:21.835Z,3.98
2023-03-11T05:40:21.812Z,3.90
2023-03-11T05:41:21.799Z,3.94
2023-03-11T05:42:21.800Z,3.98
2023-03-11T05:43:21.779Z,3.98
2023-03-11T05:44:21.802Z,3.94
2023-03-11T05:45:21.771Z,3.90
2023-03-11T05:46:21.753Z,3.84
2023-03-11T05:47:21.736Z,3.88
2023-03-11T05:48:21.741Z,3.87
2023-03-11T05:49:21.754Z,3.91
2023-03-11T05:50:21.721Z,3.91
2023-03-11T05:51:21.689Z,4.08
2023-03-11T05:52:22.240Z,4.12
2023-03-11T05:53:21.686Z,4.12
2023-03-11T05:54:21.680Z,4.09
2023-03-11T05:55:21.677Z,4.06
2023-03-11T05:56:21.679Z,4.02
2023-03-11T05:57:21.640Z,4.02
2023-03-11T05:58:21.643Z,3.99
2023-03-11T05:59:21.622Z,3.90
2023-03-11T06:00:21.624Z,3.91
2023-03-11T06:01:21.644Z,3.96
2023-03-11T06:02:21.583Z,3.99
2023-03-11T06:03:21.571Z,4.03
2023-03-11T06:04:21.636Z,4.09
2023-03-11T06:05:21.586Z,4.08
2023-03-11T06:06:21.558Z,4.13
2023-03-11T06:07:21.536Z,4.10
2023-03-11T06:08:21.597Z,4.00
2023-03-11T06:09:21.514Z,4.00
2023-03-11T06:10:21.505Z,4.00
2023-03-11T06:11:21.541Z,4.00
2023-03-11T06:12:21.523Z,4.13
2023-03-11T06:13:21.483Z,4.21
2023-03-11T06:14:21.483Z,4.20
2023-03-11T06:15:21.527Z,4.10
2023-03-11T06:16:21.551Z,4.09
2023-03-11T06:17:21.429Z,4.05
2023-03-11T06:18:21.487Z,4.10
2023-03-11T06:19:21.454Z,4.09
2023-03-11T06:20:21.493Z,4.18
2023-03-11T06:21:21.387Z,4.28
2023-03-11T06:22:21.423Z,4.38
2023-03-11T06:23:21.364Z,4.39
2023-03-11T06:24:21.358Z,4.31
2023-03-11T06:25:21.370Z,4.31
2023-03-11T06:26:21.376Z,4.35
2023-03-11T06:27:21.324Z,4.17
2023-03-11T06:28:21.324Z,4.16
2023-03-11T06:29:21.362Z,4.17
2023-03-11T06:30:21.293Z,4.16
2023-03-11T06:31:21.356Z,4.21
2023-03-11T06:32:21.379Z,4.30
2023-03-11T06:33:21.260Z,4.35
2023-03-11T06:34:21.259Z,4.27
2023-03-11T06:35:21.254Z,4.27
2023-03-11T06:36:21.334Z,4.27
2023-03-11T06:37:21.256Z,4.18
2023-03-11T06:38:21.270Z,4.10
2023-03-11T06:39:21.196Z,4.08
2023-03-11T06:40:21.245Z,4.16
2023-03-11T06:41:21.191Z,4.34
2023-03-11T06:42:21.184Z,4.78
2023-03-11T06:43:21.209Z,5.36
2023-03-11T06:44:21.208Z,5.82
2023-03-11T06:45:21.458Z,6.11
2023-03-11T06:46:21.240Z,6.11
2023-03-11T06:47:21.141Z,6.24
2023-03-11T06:48:21.156Z,6.24
2023-03-11T06:49:21.106Z,6.00
2023-03-11T06:50:21.133Z,5.95
2023-03-11T06:51:21.285Z,5.79
2023-03-11T06:52:21.076Z,5.36
2023-03-11T06:53:21.218Z,5.12
2023-03-11T06:54:21.115Z,5.16
2023-03-11T06:55:21.058Z,5.41
2023-03-11T06:56:21.047Z,5.65
2023-03-11T06:57:21.030Z,5.77
2023-03-11T06:58:21.018Z,5.79
2023-03-11T06:59:21.059Z,5.73
2023-03-11T07:00:21.024Z,5.70
2023-03-11T07:01:21.103Z,5.67
2023-03-11T07:02:21.020Z,5.47
2023-03-11T07:03:20.970Z,5.36
2023-03-11T07:04:21.076Z,5.22
2023-03-11T07:05:20.958Z,5.11
2023-03-11T07:06:20.958Z,5.25
2023-03-11T07:07:20.942Z,5.48
2023-03-11T07:08:20.939Z,5.75
2023-03-11T07:09:20.954Z,6.15
2023-03-11T07:10:20.904Z,6.34
2023-03-11T07:11:21.632Z,6.42
2023-03-11T07:12:20.895Z,6.24
2023-03-11T07:13:20.899Z,5.94
2023-03-11T07:14:20.870Z,5.91
2023-03-11T07:15:20.842Z,5.93
2023-03-11T07:16:20.998Z,5.75
2023-03-11T07:17:21.235Z,5.70
2023-03-11T07:18:21.109Z,5.69
2023-03-11T07:19:20.837Z,5.72
2023-03-11T07:20:20.807Z,5.52
2023-03-11T07:21:21.220Z,5.40
2023-03-11T07:22:20.792Z,5.39
2023-03-11T07:23:20.802Z,5.34
2023-03-11T07:24:21.088Z,5.34
2023-03-11T07:25:20.786Z,5.30
2023-03-11T07:26:20.768Z,5.30
2023-03-11T07:27:20.901Z,5.62
2023-03-11T07:28:20.782Z,6.00
2023-03-11T07:29:21.129Z,6.34
2023-03-11T07:30:20.747Z,6.50
2023-03-11T07:31:21.123Z,6.71
2023-03-11T07:32:20.732Z,6.88
2023-03-11T07:33:20.884Z,7.18
2023-03-11T07:34:20.690Z,7.26
2023-03-11T07:35:20.658Z,7.15
2023-03-11T07:36:20.670Z,7.10
2023-03-11T07:37:20.645Z,7.31
2023-03-11T07:38:21.063Z,7.50
2023-03-11T07:39:20.628Z,7.68
2023-03-11T07:40:21.229Z,7.60
2023-03-11T07:41:20.706Z,7.24
2023-03-11T07:42:20.737Z,7.07
2023-03-11T07:43:21.018Z,6.82
2023-03-11T07:44:20.570Z,6.73
2023-03-11T07:45:20.584Z,6.45
2023-03-11T07:46:20.659Z,6.37
2023-03-11T07:47:20.846Z,6.15
2023-03-11T07:48:20.744Z,5.94
2023-03-11T07:49:20.530Z,5.73
2023-03-11T07:50:20.556Z,5.55
2023-03-11T07:51:20.556Z,5.58
2023-03-11T07:52:20.509Z,5.65
2023-03-11T07:53:20.501Z,5.69
2023-03-11T07:54:20.479Z,5.80
2023-03-11T07:55:20.464Z,5.93
2023-03-11T07:56:20.494Z,6.02
2023-03-11T07:57:20.440Z,6.05
2023-03-11T07:58:20.492Z,6.12
2023-03-11T07:59:20.432Z,6.11
2023-03-11T08:00:20.435Z,5.77
2023-03-11T08:01:20.456Z,5.30
2023-03-11T08:02:20.453Z,4.91
2023-03-11T08:03:20.470Z,4.83
2023-03-11T08:04:20.778Z,4.86
2023-03-11T08:05:20.378Z,4.91
2023-03-11T08:06:20.358Z,5.12
2023-03-11T08:07:20.359Z,5.15
2023-03-11T08:08:20.473Z,5.15
2023-03-11T08:09:20.330Z,5.27
2023-03-11T08:10:20.340Z,5.22
2023-03-11T08:11:20.320Z,5.14
2023-03-11T08:12:20.354Z,5.06
2023-03-11T08:13:20.326Z,5.11
2023-03-11T08:14:20.313Z,5.24
2023-03-11T08:15:20.293Z,5.24
2023-03-11T08:16:20.260Z,5.22
2023-03-11T08:17:20.236Z,5.18
2023-03-11T08:18:20.298Z,5.14
2023-03-11T08:19:20.281Z,5.11
2023-03-11T08:20:20.260Z,5.03
2023-03-11T08:21:20.220Z,5.01
2023-03-11T08:22:20.196Z,5.00
2023-03-11T08:23:20.231Z,5.06
2023-03-11T08:24:20.179Z,5.21
2023-03-11T08:25:20.182Z,5.27
2023-03-11T08:26:20.209Z,5.30
2023-03-11T08:27:20.162Z,5.24
2023-03-11T08:28:20.151Z,5.19
2023-03-11T08:29:20.128Z,5.15
2023-03-11T08:30:20.145Z,5.09
2023-03-11T08:31:20.133Z,4.89
2023-03-11T08:32:20.181Z,4.83
2023-03-11T08:33:20.107Z,4.77
2023-03-11T08:34:20.129Z,4.77
2023-03-11T08:35:20.062Z,4.82
2023-03-11T08:36:20.059Z,4.83
2023-03-11T08:37:23.381Z,4.82
2023-03-11T08:38:20.058Z,4.75
2023-03-11T08:39:20.233Z,4.93
2023-03-11T08:40:20.140Z,4.98
2023-03-11T08:41:20.633Z,5.00
2023-03-11T08:42:20.024Z,4.79
2023-03-11T08:43:19.992Z,4.85
2023-03-11T08:44:20.000Z,4.79
2023-03-11T08:45:20.097Z,4.86
2023-03-11T08:46:20.018Z,4.83
2023-03-11T08:47:19.949Z,4.75
2023-03-11T08:48:20.280Z,4.72
2023-03-11T08:49:19.928Z,4.71
2023-03-11T08:50:19.943Z,4.72
2023-03-11T08:51:19.913Z,4.78
2023-03-11T08:52:20.019Z,4.88
2023-03-11T08:53:19.953Z,5.01
2023-03-11T08:54:19.923Z,5.04
2023-03-11T08:55:19.885Z,5.04
2023-03-11T08:56:19.923Z,5.04
2023-03-11T08:57:19.886Z,4.97
2023-03-11T08:58:19.835Z,4.91
2023-03-11T08:59:19.824Z,4.89
2023-03-11T09:00:19.854Z,4.86
2023-03-11T09:01:19.853Z,4.85
2023-03-11T09:02:19.846Z,4.77
2023-03-11T09:03:19.787Z,4.75
2023-03-11T09:04:19.799Z,4.75
2023-03-11T09:05:19.803Z,4.82
2023-03-11T09:06:19.822Z,4.78
2023-03-11T09:07:19.747Z,4.79
2023-03-11T09:08:19.775Z,4.91
2023-03-11T09:09:19.851Z,4.94
2023-03-11T09:10:19.739Z,4.97
2023-03-11T09:11:19.752Z,4.89
2023-03-11T09:12:19.760Z,4.86
2023-03-11T09:13:19.683Z,4.93
2023-03-11T09:14:19.675Z,4.74
2023-03-11T09:15:19.679Z,4.59
2023-03-11T09:16:19.790Z,4.59
2023-03-11T09:17:19.691Z,4.66
2023-03-11T09:18:19.657Z,4.72
2023-03-11T09:19:19.641Z,4.77
2023-03-11T09:20:20.155Z,4.86
2023-03-11T09:21:19.639Z,4.96
2023-03-11T09:22:19.628Z,5.06
2023-03-11T09:23:19.583Z,5.19
2023-03-11T09:24:19.579Z,5.27
2023-03-11T09:25:19.570Z,5.24
2023-03-11T09:26:19.558Z,5.16
2023-03-11T09:27:19.603Z,5.06
2023-03-11T09:28:19.562Z,4.98
2023-03-11T09:29:19.577Z,4.96
2023-03-11T09:30:19.545Z,4.94
2023-03-11T09:31:19.605Z,4.93
2023-03-11T09:32:20.180Z,4.93
2023-03-11T09:33:19.544Z,4.91
2023-03-11T09:34:19.488Z,4.93
2023-03-11T09:35:19.473Z,4.91
2023-03-11T09:36:19.510Z,4.91
2023-03-11T09:37:19.517Z,4.77
2023-03-11T09:38:19.463Z,4.61
2023-03-11T09:39:19.494Z,4.60
2023-03-11T09:40:19.437Z,4.53
2023-03-11T09:41:19.439Z,4.54
2023-03-11T09:42:19.464Z,4.51
2023-03-11T09:43:19.619Z,4.38
2023-03-11T09:44:19.405Z,4.41
2023-03-11T09:45:19.389Z,4.45
2023-03-11T09:46:19.411Z,4.54
2023-03-11T09:47:19.409Z,4.59
2023-03-11T09:48:21.726Z,4.46
2023-03-11T09:49:19.385Z,4.39
2023-03-11T09:50:19.384Z,4.42
2023-03-11T09:51:19.315Z,4.51
2023-03-11T09:52:19.327Z,4.54
2023-03-11T09:53:19.301Z,4.51
2023-03-11T09:54:20.248Z,4.48
2023-03-11T09:55:19.486Z,4.56
2023-03-11T09:56:19.277Z,4.69
2023-03-11T09:57:19.266Z,4.88
2023-03-11T09:58:19.285Z,4.98
2023-03-11T09:59:19.256Z,4.98
2023-03-11T10:00:19.232Z,5.18
2023-03-11T10:01:19.221Z,5.24
2023-03-11T10:02:19.439Z,5.22
2023-03-11T10:03:19.230Z,5.14
2023-03-11T10:04:19.208Z,5.24
2023-03-11T10:05:19.276Z,5.44
2023-03-11T10:06:19.197Z,5.58
2023-03-11T10:07:19.156Z,5.79
2023-03-11T10:08:19.169Z,5.76
2023-03-11T10:09:19.159Z,5.73
2023-03-11T10:10:19.163Z,5.76
2023-03-11T10:11:19.103Z,5.72
2023-03-11T10:12:19.145Z,5.77
2023-03-11T10:13:19.140Z,5.90
2023-03-11T10:14:19.080Z,5.79
2023-03-11T10:15:19.100Z,5.57
2023-03-11T10:16:19.132Z,5.44
2023-03-11T10:17:19.089Z,5.43
2023-03-11T10:18:19.050Z,5.51
2023-03-11T10:19:19.069Z,5.69
2023-03-11T10:20:19.030Z,5.79
2023-03-11T10:21:19.364Z,5.85
2023-03-11T10:22:19.010Z,5.85
2023-03-11T10:23:19.044Z,5.76
2023-03-11T10:24:19.075Z,5.67
2023-03-11T10:25:19.043Z,5.70
2023-03-11T10:26:18.980Z,5.76
2023-03-11T10:27:19.079Z,5.80
2023-03-11T10:28:18.982Z,5.69
2023-03-11T10:29:18.956Z,5.52
2023-03-11T10:30:18.927Z,5.62
2023-03-11T10:31:19.260Z,5.75
2023-03-11T10:32:18.951Z,5.90
2023-03-11T10:33:19.038Z,6.03
2023-03-11T10:34:18.938Z,6.18
2023-03-11T10:35:18.879Z,6.31
2023-03-11T10:36:18.890Z,6.42
2023-03-11T10:37:19.328Z,6.38
2023-03-11T10:38:18.899Z,6.28
2023-03-11T10:39:18.873Z,6.28
2023-03-11T10:40:18.869Z,6.32
2023-03-11T10:41:18.833Z,6.28
2023-03-11T10:42:18.836Z,6.43
2023-03-11T10:43:18.805Z,6.40
2023-03-11T10:44:18.876Z,6.31
2023-03-11T10:45:18.782Z,5.95
2023-03-11T10:46:18.853Z,5.75
2023-03-11T10:47:18.838Z,5.54
2023-03-11T10:48:18.776Z,5.43
2023-03-11T10:49:18.772Z,5.09
2023-03-11T10:50:18.739Z,4.98
2023-03-11T10:51:18.725Z,4.97
2023-03-11T10:52:19.740Z,4.94
2023-03-11T10:53:18.749Z,4.91
2023-03-11T10:54:18.718Z,4.96
2023-03-11T10:55:18.685Z,5.06
2023-03-11T10:56:18.698Z,5.03
2023-03-11T10:57:18.715Z,4.96
2023-03-11T10:58:18.669Z,4.86
2023-03-11T10:59:18.827Z,4.91
2023-03-11T11:00:18.673Z,4.98
2023-03-11T11:01:18.682Z,5.03
2023-03-11T11:02:18.629Z,4.96
2023-03-11T11:03:18.623Z,5.03
2023-03-11T11:04:18.722Z,5.11
2023-03-11T11:05:18.654Z,5.15
2023-03-11T11:06:18.587Z,5.21
2023-03-11T11:07:18.566Z,5.18
2023-03-11T11:08:18.577Z,5.30
2023-03-11T11:09:18.561Z,5.37
2023-03-11T11:10:18.616Z,5.39
2023-03-11T11:11:18.558Z,5.40
2023-03-11T11:12:18.537Z,5.41
2023-03-11T11:13:18.518Z,5.44
2023-03-11T11:14:18.562Z,5.47
2023-03-11T11:15:18.511Z,5.50
2023-03-11T11:16:18.517Z,5.37
2023-03-11T11:17:18.464Z,5.30
2023-03-11T11:18:18.472Z,5.36
2023-03-11T11:19:19.390Z,5.40
2023-03-11T11:20:18.552Z,5.51
2023-03-11T11:21:18.466Z,5.61
2023-03-11T11:22:18.457Z,5.59
2023-03-11T11:23:18.491Z,5.54
2023-03-11T11:24:18.432Z,5.50
2023-03-11T11:25:18.532Z,5.55
2023-03-11T11:26:18.496Z,5.52
2023-03-11T11:27:18.389Z,5.48
2023-03-11T11:28:18.369Z,5.44
2023-03-11T11:29:18.354Z,5.59
2023-03-11T11:30:18.461Z,5.57
2023-03-11T11:31:18.487Z,5.50
2023-03-11T11:32:18.370Z,5.50
2023-03-11T11:33:18.351Z,5.41
2023-03-11T11:34:18.310Z,5.29
2023-03-11T11:35:18.340Z,5.30
2023-03-11T11:36:18.342Z,5.44
2023-03-11T11:37:18.288Z,5.55
2023-03-11T11:38:18.256Z,5.67
2023-03-11T11:39:18.241Z,5.84
2023-03-11T11:40:18.338Z,5.94
2023-03-11T11:41:18.251Z,6.03
2023-03-11T11:42:18.267Z,6.05
2023-03-11T11:43:18.271Z,6.03
2023-03-11T11:44:18.240Z,6.08
2023-03-11T11:45:18.214Z,6.08
2023-03-11T11:46:18.263Z,6.09
2023-03-11T11:47:18.182Z,6.21
2023-03-11T11:48:18.180Z,6.27
2023-03-11T11:49:18.144Z,6.24
2023-03-11T11:50:18.153Z,6.18
2023-03-11T11:51:18.140Z,6.05
2023-03-11T11:52:18.109Z,5.94
2023-03-11T11:53:18.279Z,5.82
2023-03-11T11:54:18.118Z,5.65
2023-03-11T11:55:18.100Z,5.62
2023-03-11T11:56:18.084Z,5.61
2023-03-11T11:57:18.098Z,5.58
2023-03-11T11:58:18.064Z,5.66
2023-03-11T11:59:18.071Z,5.77
2023-03-11T12:00:18.044Z,5.87
2023-03-11T12:01:18.073Z,5.87
2023-03-11T12:02:18.096Z,5.91
2023-03-11T12:03:18.048Z,5.91
2023-03-11T12:04:17.984Z,5.87
2023-03-11T12:05:18.076Z,5.88
2023-03-11T12:06:18.024Z,6.08
2023-03-11T12:07:17.955Z,6.15
2023-03-11T12:08:17.989Z,5.95
2023-03-11T12:09:17.995Z,5.66
2023-03-11T12:10:23.449Z,5.51
2023-03-11T12:11:17.972Z,5.55
2023-03-11T12:12:17.947Z,5.70
2023-03-11T12:13:17.910Z,5.72
2023-03-11T12:14:17.915Z,5.72
2023-03-11T12:15:17.912Z,5.77
2023-03-11T12:16:17.954Z,5.76
2023-03-11T12:17:17.913Z,5.76
2023-03-11T12:18:17.900Z,5.80
2023-03-11T12:19:17.982Z,5.94
2023-03-11T12:20:17.836Z,5.93
2023-03-11T12:21:17.837Z,5.90
2023-03-11T12:22:17.818Z,5.93
2023-03-11T12:23:17.857Z,5.87
2023-03-11T12:24:17.842Z,5.77
2023-03-11T12:25:17.784Z,5.80
2023-03-11T12:26:17.797Z,5.87
2023-03-11T12:27:17.816Z,5.97
2023-03-11T12:28:17.784Z,5.93
2023-03-11T12:29:17.756Z,5.91
2023-03-11T12:30:17.787Z,5.79
2023-03-11T12:31:17.779Z,5.66
2023-03-11T12:32:17.734Z,5.62
2023-03-11T12:33:17.728Z,5.80
2023-03-11T12:34:17.708Z,6.11
2023-03-11T12:35:17.717Z,6.40
2023-03-11T12:36:17.768Z,6.53
2023-03-11T12:37:17.684Z,6.61
2023-03-11T12:38:17.798Z,6.57
2023-03-11T12:39:17.677Z,6.65
2023-03-11T12:40:17.646Z,6.63
2023-03-11T12:41:18.912Z,6.49
2023-03-11T12:42:17.647Z,6.50
2023-03-11T12:43:17.632Z,6.34
2023-03-11T12:44:17.605Z,6.13
2023-03-11T12:45:17.615Z,6.02
2023-03-11T12:46:17.701Z,5.91
2023-03-11T12:47:17.603Z,5.94
2023-03-11T12:48:17.595Z,6.03
2023-03-11T12:49:17.548Z,6.16
2023-03-11T12:50:17.588Z,6.19
2023-03-11T12:51:17.611Z,6.18
2023-03-11T12:52:17.533Z,6.19
2023-03-11T12:53:17.587Z,6.25
2023-03-11T12:54:17.514Z,6.28
2023-03-11T12:55:17.497Z,6.35
2023-03-11T12:56:17.517Z,6.18
2023-03-11T12:57:17.561Z,5.98
2023-03-11T12:58:17.477Z,5.88
2023-03-11T12:59:17.478Z,5.70
2023-03-11T13:00:17.468Z,5.70
2023-03-11T13:01:17.584Z,5.79
2023-03-11T13:02:17.501Z,5.84
2023-03-11T13:03:17.526Z,5.90
2023-03-11T13:04:17.442Z,5.93
2023-03-11T13:05:17.421Z,5.87
2023-03-11T13:06:17.406Z,5.85
2023-03-11T13:07:17.474Z,5.91
2023-03-11T13:08:17.414Z,6.06
2023-03-11T13:09:17.377Z,6.16
2023-03-11T13:10:17.364Z,6.24
2023-03-11T13:11:17.397Z,6.32
2023-03-11T13:12:17.423Z,6.42
2023-03-11T13:13:17.339Z,6.37
2023-03-11T13:14:17.364Z,6.28
2023-03-11T13:15:17.340Z,6.27
2023-03-11T13:16:17.301Z,6.32
2023-03-11T13:17:17.281Z,6.30
2023-03-11T13:18:17.288Z,6.31